createdAt,value
2022-12-12T00:00:29.517Z,0.00
2022-12-12T00:01:29.526Z,0.00
2022-12-12T00:02:29.685Z,0.00
2022-12-12T00:03:29.609Z,0.00
2022-12-12T00:04:29.523Z,0.00
2022-12-12T00:05:29.526Z,0.00
2022-12-12T00:06:29.527Z,0.00
2022-12-12T00:07:29.516Z,0.00
2022-12-12T00:08:32.258Z,0.00
2022-12-12T00:09:29.523Z,0.00
2022-12-12T00:10:35.520Z,0.00
2022-12-12T00:11:29.541Z,0.00
2022-12-12T00:12:29.524Z,0.00
2022-12-12T00:13:29.517Z,0.00
2022-12-12T00:14:29.531Z,0.00
2022-12-12T00:15:29.514Z,0.00
2022-12-12T00:16:29.522Z,0.00
2022-12-12T00:17:29.521Z,0.00
2022-12-12T00:18:29.526Z,0.00
2022-12-12T00:19:29.516Z,0.00
2022-12-12T00:20:29.524Z,0.00
2022-12-12T00:21:29.521Z,0.00
2022-12-12T00:22:29.515Z,0.00
2022-12-12T00:23:29.524Z,0.00
2022-12-12T00:27:15.404Z,0.00
2022-12-12T00:28:15.391Z,0.00
2022-12-12T00:29:15.387Z,0.00
2022-12-12T00:30:15.383Z,0.00
2022-12-12T00:31:15.422Z,0.00
2022-12-12T00:32:15.388Z,0.00
2022-12-12T00:33:15.383Z,0.00
2022-12-12T00:34:15.387Z,0.00
2022-12-12T00:35:15.565Z,0.00
2022-12-12T00:36:15.379Z,0.00
2022-12-12T00:37:15.389Z,0.00
2022-12-12T00:38:15.388Z,0.00
2022-12-12T00:39:18.425Z,0.00
2022-12-12T00:40:15.384Z,0.00
2022-12-12T00:41:15.380Z,0.00
2022-12-12T00:42:15.386Z,0.00
2022-12-12T00:43:15.401Z,0.00
2022-12-12T00:44:15.378Z,0.00
2022-12-12T00:45:15.570Z,0.00
2022-12-12T00:46:15.500Z,0.00
2022-12-12T00:47:15.381Z,0.00
2022-12-12T00:48:15.386Z,0.00
2022-12-12T00:49:15.378Z,0.00
2022-12-12T00:50:15.384Z,0.00
2022-12-12T00:51:15.373Z,0.00
2022-12-12T00:52:15.382Z,0.00
2022-12-12T00:53:15.381Z,0.00
2022-12-12T00:54:15.375Z,0.00
2022-12-12T00:55:15.729Z,0.00
2022-12-12T00:56:15.383Z,0.00
2022-12-12T00:57:15.378Z,0.00
2022-12-12T00:58:15.376Z,0.00
2022-12-12T00:59:15.400Z,0.00
2022-12-12T01:00:15.371Z,0.00
2022-12-12T01:01:15.415Z,0.00
2022-12-12T01:02:15.371Z,0.00
2022-12-12T01:03:15.443Z,0.00
2022-12-12T01:04:15.369Z,0.00
2022-12-12T01:05:15.626Z,0.00
2022-12-12T01:06:15.372Z,0.00
2022-12-12T01:07:15.378Z,0.00
2022-12-12T01:08:15.415Z,0.00
2022-12-12T01:09:15.377Z,0.00
2022-12-12T01:10:15.368Z,0.00
2022-12-12T01:11:15.368Z,0.00
2022-12-12T01:12:15.375Z,0.00
2022-12-12T01:13:15.369Z,0.00
2022-12-12T01:14:15.367Z,0.00
2022-12-12T01:15:15.637Z,0.00
2022-12-12T01:16:15.500Z,0.00
2022-12-12T01:17:15.372Z,0.00
2022-12-12T01:18:15.368Z,0.00
2022-12-12T01:19:15.365Z,0.00
2022-12-12T01:20:15.365Z,0.00
2022-12-12T01:21:15.365Z,0.00
2022-12-12T01:22:15.376Z,0.00
2022-12-12T01:23:15.364Z,0.00
2022-12-12T01:24:15.372Z,0.00
2022-12-12T01:25:15.537Z,0.00
2022-12-12T01:26:15.376Z,0.00
2022-12-12T01:27:15.379Z,0.00
2022-12-12T01:28:15.376Z,0.00
2022-12-12T01:29:15.362Z,0.00
2022-12-12T01:30:15.374Z,0.00
2022-12-12T01:31:15.577Z,0.00
2022-12-12T01:32:15.363Z,0.00
2022-12-12T01:33:15.363Z,0.00
2022-12-12T01:34:15.362Z,0.00
2022-12-12T01:35:15.652Z,0.00
2022-12-12T01:36:15.368Z,0.00
2022-12-12T01:37:15.366Z,0.00
2022-12-12T01:38:15.369Z,0.00
2022-12-12T01:39:15.367Z,0.00
2022-12-12T01:40:15.367Z,0.00
2022-12-12T01:41:15.364Z,0.00
2022-12-12T01:42:15.366Z,0.00
2022-12-12T01:43:15.368Z,0.00
2022-12-12T01:44:15.359Z,0.00
2022-12-12T01:45:15.368Z,0.00
2022-12-12T01:46:15.403Z,0.00
2022-12-12T01:47:15.390Z,0.00
2022-12-12T01:48:15.367Z,0.00
2022-12-12T01:49:15.366Z,0.00
2022-12-12T01:50:15.364Z,0.00
2022-12-12T01:51:15.362Z,0.00
2022-12-12T01:52:15.359Z,0.00
2022-12-12T01:53:15.363Z,0.00
2022-12-12T01:54:15.359Z,0.00
2022-12-12T01:55:15.362Z,0.00
2022-12-12T01:56:15.363Z,0.00
2022-12-12T01:57:15.358Z,0.00
2022-12-12T01:58:15.363Z,0.00
2022-12-12T01:59:15.355Z,0.00
2022-12-12T02:00:15.354Z,0.00
2022-12-12T02:01:15.356Z,0.00
2022-12-12T02:02:15.386Z,0.00
2022-12-12T02:03:15.377Z,0.00
2022-12-12T02:04:15.372Z,0.00
2022-12-12T02:05:15.360Z,0.00
2022-12-12T02:06:15.352Z,0.00
2022-12-12T02:07:15.359Z,0.00
2022-12-12T02:08:15.409Z,0.00
2022-12-12T02:09:15.352Z,0.00
2022-12-12T02:10:15.351Z,0.00
2022-12-12T02:11:15.360Z,0.00
2022-12-12T02:12:15.351Z,0.00
2022-12-12T02:13:15.359Z,0.00
2022-12-12T02:14:15.352Z,0.00
2022-12-12T02:15:15.552Z,0.00
2022-12-12T02:16:15.398Z,0.00
2022-12-12T02:17:15.356Z,0.00
2022-12-12T02:18:15.358Z,0.00
2022-12-12T02:19:15.381Z,0.00
2022-12-12T02:20:15.350Z,0.00
2022-12-12T02:21:15.357Z,0.00
2022-12-12T02:22:15.357Z,0.00
2022-12-12T02:23:15.355Z,0.00
2022-12-12T02:24:15.358Z,0.00
2022-12-12T02:25:15.423Z,0.00
2022-12-12T02:26:15.349Z,0.00
2022-12-12T02:27:15.354Z,0.00
2022-12-12T02:28:15.356Z,0.00
2022-12-12T02:29:15.347Z,0.00
2022-12-12T02:30:15.358Z,0.00
2022-12-12T02:31:15.401Z,0.00
2022-12-12T02:32:15.357Z,0.00
2022-12-12T02:33:15.356Z,0.00
2022-12-12T02:34:15.349Z,0.00
2022-12-12T02:35:15.671Z,0.00
2022-12-12T02:36:15.347Z,0.00
2022-12-12T02:37:15.348Z,0.00
2022-12-12T02:38:15.348Z,0.00
2022-12-12T02:39:15.348Z,0.00
2022-12-12T02:40:15.348Z,0.00
2022-12-12T02:41:15.355Z,0.00
2022-12-12T02:42:15.346Z,0.00
2022-12-12T02:43:15.354Z,0.00
2022-12-12T02:44:15.345Z,0.00
2022-12-12T02:45:15.654Z,0.00
2022-12-12T02:46:15.456Z,0.00
2022-12-12T02:47:15.347Z,0.00
2022-12-12T02:48:15.354Z,0.00
2022-12-12T02:49:15.346Z,0.00
2022-12-12T02:50:15.347Z,0.00
2022-12-12T02:51:15.366Z,0.00
2022-12-12T02:52:15.347Z,0.00
2022-12-12T02:53:15.353Z,0.00
2022-12-12T02:54:15.347Z,0.00
2022-12-12T02:55:15.568Z,0.00
2022-12-12T02:56:15.347Z,0.00
2022-12-12T02:57:15.346Z,0.00
2022-12-12T02:58:15.355Z,0.00
2022-12-12T02:59:15.356Z,0.00
2022-12-12T03:00:15.355Z,0.00
2022-12-12T03:01:15.422Z,0.00
2022-12-12T03:02:15.396Z,0.00
2022-12-12T03:03:15.353Z,0.00
2022-12-12T03:04:15.348Z,0.00
2022-12-12T03:05:15.626Z,0.00
2022-12-12T03:06:15.353Z,0.00
2022-12-12T03:07:15.369Z,0.00
2022-12-12T03:08:15.400Z,0.00
2022-12-12T03:09:15.346Z,0.00
2022-12-12T03:10:15.354Z,0.00
2022-12-12T03:11:15.352Z,0.00
2022-12-12T03:12:15.346Z,0.00
2022-12-12T03:13:15.354Z,0.00
2022-12-12T03:14:15.344Z,0.00
2022-12-12T03:15:15.602Z,0.00
2022-12-12T03:16:15.432Z,0.00
2022-12-12T03:17:15.346Z,0.00
2022-12-12T03:18:17.627Z,0.00
2022-12-12T03:19:15.346Z,0.00
2022-12-12T03:20:15.351Z,0.00
2022-12-12T03:21:15.345Z,0.00
2022-12-12T03:22:15.344Z,0.00
2022-12-12T03:23:15.375Z,0.00
2022-12-12T03:24:15.352Z,0.00
2022-12-12T03:25:15.725Z,0.00
2022-12-12T03:26:15.348Z,0.00
2022-12-12T03:27:15.351Z,0.00
2022-12-12T03:28:15.345Z,0.00
2022-12-12T03:29:15.350Z,0.00
2022-12-12T03:30:15.352Z,0.00
2022-12-12T03:31:15.425Z,0.00
2022-12-12T03:32:15.353Z,0.00
2022-12-12T03:33:15.343Z,0.00
2022-12-12T03:34:15.352Z,0.00
2022-12-12T03:35:15.614Z,0.00
2022-12-12T03:36:15.344Z,0.00
2022-12-12T03:37:15.349Z,0.00
2022-12-12T03:38:15.345Z,0.00
2022-12-12T03:39:15.424Z,0.00
2022-12-12T03:40:15.348Z,0.00
2022-12-12T03:41:15.343Z,0.00
2022-12-12T03:42:15.350Z,0.00
2022-12-12T03:43:15.343Z,0.00
2022-12-12T03:44:15.344Z,0.00
2022-12-12T03:45:15.592Z,0.00
2022-12-12T03:46:15.433Z,0.00
2022-12-12T03:47:15.349Z,0.00
2022-12-12T03:48:15.349Z,0.00
2022-12-12T03:49:15.354Z,0.00
2022-12-12T03:50:15.351Z,0.00
2022-12-12T03:51:15.348Z,0.00
2022-12-12T03:52:15.345Z,0.00
2022-12-12T03:53:15.341Z,0.00
2022-12-12T03:54:15.350Z,0.00
2022-12-12T03:55:15.788Z,0.00
2022-12-12T03:56:15.350Z,0.00
2022-12-12T03:57:15.351Z,0.00
2022-12-12T03:58:15.341Z,0.00
2022-12-12T03:59:15.348Z,0.00
2022-12-12T04:00:15.348Z,0.00
2022-12-12T04:01:15.388Z,0.00
2022-12-12T04:02:15.424Z,0.00
2022-12-12T04:03:15.349Z,0.00
2022-12-12T04:04:15.347Z,0.00
2022-12-12T04:05:15.616Z,0.00
2022-12-12T04:06:15.343Z,0.00
2022-12-12T04:07:15.343Z,0.00
2022-12-12T04:08:15.427Z,0.00
2022-12-12T04:09:15.341Z,0.00
2022-12-12T04:10:15.350Z,0.00
2022-12-12T04:11:15.374Z,0.00
2022-12-12T04:12:15.347Z,0.00
2022-12-12T04:13:15.351Z,0.00
2022-12-12T04:14:15.350Z,0.00
2022-12-12T04:15:15.721Z,0.00
2022-12-12T04:16:15.508Z,0.00
2022-12-12T04:17:15.347Z,0.00
2022-12-12T04:18:15.342Z,0.00
2022-12-12T04:19:15.342Z,0.00
2022-12-12T04:20:15.419Z,0.00
2022-12-12T04:21:15.343Z,0.00
2022-12-12T04:22:18.514Z,0.00
2022-12-12T04:23:15.350Z,0.00
2022-12-12T04:24:15.342Z,0.00
2022-12-12T04:25:15.515Z,0.00
2022-12-12T04:26:15.354Z,0.00
2022-12-12T04:27:15.373Z,0.00
2022-12-12T04:28:15.344Z,0.00
2022-12-12T04:29:15.342Z,0.00
2022-12-12T04:30:15.351Z,0.00
2022-12-12T04:31:15.450Z,0.00
2022-12-12T04:32:15.350Z,0.00
2022-12-12T04:33:15.352Z,0.00
2022-12-12T04:34:15.349Z,0.00
2022-12-12T04:35:15.714Z,0.00
2022-12-12T04:36:15.351Z,0.00
2022-12-12T04:37:15.347Z,0.00
2022-12-12T04:38:15.344Z,0.00
2022-12-12T04:39:15.345Z,0.00
2022-12-12T04:40:15.355Z,0.00
2022-12-12T04:41:15.351Z,0.00
2022-12-12T04:42:15.344Z,0.00
2022-12-12T04:43:15.364Z,0.00
2022-12-12T04:44:15.342Z,0.00
2022-12-12T04:45:15.789Z,0.00
2022-12-12T04:46:15.433Z,0.00
2022-12-12T04:47:15.353Z,0.00
2022-12-12T04:48:15.350Z,0.00
2022-12-12T04:49:15.351Z,0.00
2022-12-12T04:50:15.346Z,0.00
2022-12-12T04:51:15.345Z,0.00
2022-12-12T04:52:15.349Z,0.00
2022-12-12T04:53:18.631Z,0.00
2022-12-12T04:54:15.347Z,0.00
2022-12-12T04:55:15.629Z,0.00
2022-12-12T04:56:15.346Z,0.00
2022-12-12T04:57:15.351Z,0.00
2022-12-12T04:58:15.354Z,0.00
2022-12-12T04:59:15.367Z,0.00
2022-12-12T05:00:15.353Z,0.00
2022-12-12T05:01:15.398Z,0.00
2022-12-12T05:02:15.389Z,0.00
2022-12-12T05:03:15.343Z,0.00
2022-12-12T05:04:15.345Z,0.00
2022-12-12T05:05:15.611Z,0.00
2022-12-12T05:06:15.344Z,0.00
2022-12-12T05:07:15.354Z,0.00
2022-12-12T05:08:15.408Z,0.00
2022-12-12T05:09:15.354Z,0.00
2022-12-12T05:10:15.352Z,0.00
2022-12-12T05:11:15.355Z,0.00
2022-12-12T05:12:15.345Z,0.00
2022-12-12T05:13:15.347Z,0.00
2022-12-12T05:14:15.346Z,0.00
2022-12-12T05:15:15.696Z,0.00
2022-12-12T05:16:15.369Z,0.00
2022-12-12T05:17:15.347Z,0.00
2022-12-12T05:18:15.353Z,0.00
2022-12-12T05:19:15.347Z,0.00
2022-12-12T05:20:15.347Z,0.00
2022-12-12T05:21:15.349Z,0.00
2022-12-12T05:22:15.355Z,0.00
2022-12-12T05:23:15.458Z,0.00
2022-12-12T05:24:15.348Z,0.00
2022-12-12T05:25:15.620Z,0.00
2022-12-12T05:26:15.357Z,0.00
2022-12-12T05:27:15.355Z,0.00
2022-12-12T05:28:15.453Z,0.00
2022-12-12T05:29:15.346Z,0.00
2022-12-12T05:30:15.357Z,0.00
2022-12-12T05:31:15.453Z,0.00
2022-12-12T05:32:15.358Z,0.00
2022-12-12T05:33:15.392Z,0.00
2022-12-12T05:34:15.357Z,0.00
2022-12-12T05:35:15.672Z,0.00
2022-12-12T05:36:15.349Z,0.00
2022-12-12T05:37:15.356Z,0.00
2022-12-12T05:38:15.351Z,0.00
2022-12-12T05:39:15.355Z,0.00
2022-12-12T05:40:15.349Z,0.00
2022-12-12T05:41:15.351Z,0.00
2022-12-12T05:42:15.349Z,0.00
2022-12-12T05:43:15.350Z,0.00
2022-12-12T05:44:15.349Z,0.00
2022-12-12T05:45:15.638Z,0.00
2022-12-12T05:46:15.452Z,0.00
2022-12-12T05:47:15.376Z,0.00
2022-12-12T05:48:19.564Z,0.00
2022-12-12T05:49:15.351Z,0.00
2022-12-12T05:50:15.357Z,0.00
2022-12-12T05:51:15.358Z,0.00
2022-12-12T05:52:15.357Z,0.00
2022-12-12T05:53:15.350Z,0.00
2022-12-12T05:54:15.356Z,0.00
2022-12-12T05:55:15.645Z,0.00
2022-12-12T05:56:15.349Z,0.00
2022-12-12T05:57:15.361Z,0.00
2022-12-12T05:58:15.360Z,0.00
2022-12-12T05:59:15.356Z,0.00
2022-12-12T06:00:15.359Z,0.00
2022-12-12T06:01:15.351Z,0.00
2022-12-12T06:02:15.404Z,0.00
2022-12-12T06:03:15.373Z,0.00
2022-12-12T06:04:15.486Z,0.00
2022-12-12T06:05:15.686Z,0.00
2022-12-12T06:06:15.351Z,0.00
2022-12-12T06:07:15.355Z,0.00
2022-12-12T06:08:15.427Z,0.00
2022-12-12T06:09:15.356Z,0.00
2022-12-12T06:10:15.349Z,0.00
2022-12-12T06:11:15.349Z,0.00
2022-12-12T06:12:15.349Z,0.00
2022-12-12T06:13:15.349Z,0.00
2022-12-12T06:14:15.350Z,0.00
2022-12-12T06:15:15.637Z,0.00
2022-12-12T06:16:15.391Z,0.00
2022-12-12T06:17:15.354Z,0.00
2022-12-12T06:18:15.350Z,0.00
2022-12-12T06:19:15.379Z,0.00
2022-12-12T06:20:15.347Z,0.00
2022-12-12T06:21:15.348Z,0.00
2022-12-12T06:22:15.354Z,0.00
2022-12-12T06:23:15.346Z,0.00
2022-12-12T06:24:15.346Z,0.00
2022-12-12T06:25:15.698Z,0.00
2022-12-12T06:26:15.347Z,0.00
2022-12-12T06:27:15.347Z,0.00
2022-12-12T06:28:15.346Z,0.00
2022-12-12T06:29:15.357Z,0.00
2022-12-12T06:30:15.348Z,0.00
2022-12-12T06:31:15.393Z,0.00
2022-12-12T06:32:15.354Z,0.00
2022-12-12T06:33:15.356Z,0.00
2022-12-12T06:34:15.344Z,4.00
2022-12-12T06:35:15.766Z,4.00
2022-12-12T06:36:15.344Z,0.00
2022-12-12T06:37:17.404Z,0.00
2022-12-12T06:38:15.345Z,4.00
2022-12-12T06:39:15.350Z,4.00
2022-12-12T06:40:15.356Z,4.00
2022-12-12T06:41:15.354Z,4.00
2022-12-12T06:42:15.348Z,4.00
2022-12-12T06:43:15.342Z,4.00
2022-12-12T06:44:15.349Z,8.00
2022-12-12T06:45:15.860Z,8.00
2022-12-12T06:46:15.421Z,8.00
2022-12-12T06:47:15.343Z,8.00
2022-12-12T06:48:15.348Z,12.00
2022-12-12T06:49:15.347Z,12.00
2022-12-12T06:50:20.358Z,16.00
2022-12-12T06:51:15.370Z,20.00
2022-12-12T06:52:15.339Z,20.00
2022-12-12T06:53:15.343Z,24.00
2022-12-12T06:54:15.347Z,28.00
2022-12-12T06:55:15.603Z,36.00
2022-12-12T06:56:15.341Z,40.00
2022-12-12T06:57:15.339Z,44.00
2022-12-12T06:58:15.340Z,52.00
2022-12-12T06:59:15.344Z,56.00
2022-12-12T07:00:15.342Z,64.00
2022-12-12T07:01:15.459Z,72.00
2022-12-12T07:02:15.394Z,80.00
2022-12-12T07:03:15.395Z,88.00
2022-12-12T07:04:15.376Z,100.00
2022-12-12T07:05:15.567Z,108.00
2022-12-12T07:06:15.339Z,120.00
2022-12-12T07:07:15.363Z,132.00
2022-12-12T07:08:15.455Z,140.00
2022-12-12T07:09:15.333Z,156.00
2022-12-12T07:10:17.603Z,168.00
2022-12-12T07:11:15.335Z,184.00
2022-12-12T07:12:15.336Z,196.00
2022-12-12T07:13:15.340Z,208.00
2022-12-12T07:14:15.332Z,228.00
2022-12-12T07:15:15.549Z,244.00
2022-12-12T07:16:15.384Z,260.00
2022-12-12T07:17:15.328Z,280.00
2022-12-12T07:18:15.337Z,304.00
2022-12-12T07:19:15.334Z,324.00
2022-12-12T07:20:15.339Z,348.00
2022-12-12T07:21:15.333Z,376.00
2022-12-12T07:22:15.336Z,400.00
2022-12-12T07:23:15.352Z,428.00
2022-12-12T07:24:15.333Z,456.00
2022-12-12T07:25:15.576Z,472.00
2022-12-12T07:26:15.324Z,500.00
2022-12-12T07:27:20.098Z,508.00
2022-12-12T07:28:15.324Z,504.00
2022-12-12T07:29:15.331Z,516.00
2022-12-12T07:30:15.322Z,520.00
2022-12-12T07:31:15.355Z,536.00
2022-12-12T07:32:15.323Z,556.00
2022-12-12T07:33:15.324Z,592.00
2022-12-12T07:34:15.340Z,624.00
2022-12-12T07:35:15.534Z,688.00
2022-12-12T07:36:15.333Z,712.00
2022-12-12T07:37:15.329Z,740.00
2022-12-12T07:38:15.323Z,760.00
2022-12-12T07:39:20.427Z,804.00
2022-12-12T07:40:15.317Z,804.00
2022-12-12T07:41:15.321Z,844.00
2022-12-12T07:42:15.328Z,888.00
2022-12-12T07:43:15.324Z,940.00
2022-12-12T07:44:15.317Z,944.00
2022-12-12T07:45:18.527Z,1004.00
2022-12-12T07:46:15.464Z,1064.00
2022-12-12T07:47:15.322Z,1044.00
2022-12-12T07:48:15.325Z,1080.00
2022-12-12T07:49:15.325Z,1044.00
2022-12-12T07:50:15.314Z,1112.00
2022-12-12T07:51:15.326Z,1256.00
2022-12-12T07:52:15.313Z,1232.00
2022-12-12T07:53:15.317Z,1328.00
2022-12-12T07:54:15.319Z,1220.00
2022-12-12T07:55:15.669Z,1300.00
2022-12-12T07:56:15.318Z,1368.00
2022-12-12T07:57:15.317Z,1396.00
2022-12-12T07:58:15.319Z,1400.00
2022-12-12T07:59:15.309Z,1440.00
2022-12-12T08:00:15.312Z,1360.00
2022-12-12T08:01:15.519Z,1320.00
2022-12-12T08:02:15.400Z,1256.00
2022-12-12T08:03:15.310Z,1280.00
2022-12-12T08:04:15.315Z,1444.00
2022-12-12T08:05:15.746Z,1528.00
2022-12-12T08:06:15.314Z,1408.00
2022-12-12T08:07:15.308Z,1416.00
2022-12-12T08:08:15.353Z,1544.00
2022-12-12T08:09:15.307Z,1572.00
2022-12-12T08:10:15.304Z,1580.00
2022-12-12T08:11:15.324Z,1788.00
2022-12-12T08:12:15.305Z,1888.00
2022-12-12T08:13:15.306Z,2108.00
2022-12-12T08:14:15.304Z,1932.00
2022-12-12T08:15:15.764Z,2048.00
2022-12-12T08:16:15.410Z,2204.00
2022-12-12T08:17:15.311Z,2156.00
2022-12-12T08:18:15.305Z,2220.00
2022-12-12T08:19:15.310Z,2176.00
2022-12-12T08:20:15.311Z,2236.00
2022-12-12T08:21:18.783Z,2172.00
2022-12-12T08:22:15.303Z,2204.00
2022-12-12T08:23:15.302Z,2308.00
2022-12-12T08:24:15.313Z,2316.00
2022-12-12T08:25:15.674Z,2292.00
2022-12-12T08:26:15.310Z,2196.00
2022-12-12T08:27:15.898Z,2156.00
2022-12-12T08:28:15.336Z,2052.00
2022-12-12T08:29:15.301Z,2088.00
2022-12-12T08:30:15.303Z,2136.00
2022-12-12T08:31:15.327Z,2400.00
2022-12-12T08:32:15.309Z,2336.00
2022-12-12T08:33:15.302Z,2324.00
2022-12-12T08:34:15.308Z,2404.00
2022-12-12T08:35:15.589Z,2300.00
2022-12-12T08:36:15.309Z,2296.00
2022-12-12T08:37:15.302Z,2508.00
2022-12-12T08:38:15.309Z,2532.00
2022-12-12T08:39:15.302Z,2360.00
2022-12-12T08:40:15.307Z,2308.00
2022-12-12T08:41:15.309Z,2168.00
2022-12-12T08:42:15.303Z,2088.00
2022-12-12T08:43:15.308Z,2044.00
2022-12-12T08:44:15.326Z,2008.00
2022-12-12T08:45:15.566Z,1884.00
2022-12-12T08:46:17.782Z,1920.00
2022-12-12T08:47:15.302Z,2316.00
2022-12-12T08:48:15.309Z,2436.00
2022-12-12T08:49:15.310Z,2428.00
2022-12-12T08:50:15.321Z,2272.00
2022-12-12T08:51:15.304Z,2452.00
2022-12-12T08:52:15.310Z,2332.00
2022-12-12T08:53:15.303Z,2404.00
2022-12-12T08:54:15.310Z,2336.00
2022-12-12T08:55:15.620Z,2204.00
2022-12-12T08:56:15.303Z,2104.00
2022-12-12T08:57:15.303Z,2188.00
2022-12-12T08:58:15.311Z,2268.00
2022-12-12T08:59:15.302Z,2264.00
2022-12-12T09:00:15.326Z,2208.00
2022-12-12T09:01:15.303Z,2380.00
2022-12-12T09:02:15.390Z,2320.00
2022-12-12T09:03:15.303Z,2648.00
2022-12-12T09:04:15.304Z,2592.00
2022-12-12T09:05:15.672Z,2592.00
2022-12-12T09:06:15.305Z,2856.00
2022-12-12T09:07:15.309Z,2600.00
2022-12-12T09:08:15.351Z,2260.00
2022-12-12T09:09:15.308Z,2092.00
2022-12-12T09:10:15.311Z,1964.00
2022-12-12T09:11:15.314Z,1908.00
2022-12-12T09:12:15.310Z,1904.00
2022-12-12T09:13:15.305Z,2012.00
2022-12-12T09:14:15.304Z,1972.00
2022-12-12T09:15:15.808Z,2024.00
2022-12-12T09:16:15.400Z,2336.00
2022-12-12T09:17:15.313Z,2328.00
2022-12-12T09:18:15.311Z,2220.00
2022-12-12T09:19:15.312Z,2376.00
2022-12-12T09:20:15.306Z,2672.00
2022-12-12T09:21:15.313Z,2508.00
2022-12-12T09:22:15.315Z,2244.00
2022-12-12T09:23:15.312Z,2248.00
2022-12-12T09:24:15.306Z,2400.00
2022-12-12T09:25:15.679Z,2352.00
2022-12-12T09:26:15.318Z,2300.00
2022-12-12T09:27:15.306Z,2432.00
2022-12-12T09:28:15.313Z,2812.00
2022-12-12T09:29:15.314Z,2924.00
2022-12-12T09:30:15.307Z,2644.00
2022-12-12T09:31:15.436Z,2652.00
2022-12-12T09:32:16.677Z,2616.00
2022-12-12T09:33:15.308Z,2788.00
2022-12-12T09:34:15.306Z,2856.00
2022-12-12T09:35:15.701Z,2592.00
2022-12-12T09:36:15.323Z,2588.00
2022-12-12T09:37:15.315Z,2712.00
2022-12-12T09:38:15.474Z,2932.00
2022-12-12T09:39:15.308Z,3184.00
2022-12-12T09:40:15.313Z,2868.00
2022-12-12T09:41:15.309Z,2652.00
2022-12-12T09:42:15.317Z,2764.00
2022-12-12T09:43:15.316Z,3336.00
2022-12-12T09:44:15.311Z,4508.00
2022-12-12T09:45:15.732Z,5016.00
2022-12-12T09:46:15.350Z,4444.00
2022-12-12T09:47:15.316Z,4284.00
2022-12-12T09:48:15.341Z,4020.00
2022-12-12T09:49:15.315Z,3896.00
2022-12-12T09:50:15.686Z,4048.00
2022-12-12T09:51:15.318Z,4340.00
2022-12-12T09:52:15.328Z,4008.00
2022-12-12T09:53:15.311Z,3688.00
2022-12-12T09:54:15.321Z,3680.00
2022-12-12T09:55:15.311Z,3740.00
2022-12-12T09:56:15.313Z,3648.00
2022-12-12T09:57:15.312Z,3916.00
2022-12-12T09:58:15.321Z,4148.00
2022-12-12T09:59:15.315Z,4060.00
2022-12-12T10:00:15.831Z,3524.00
2022-12-12T10:01:15.337Z,4016.00
2022-12-12T10:02:15.336Z,4916.00
2022-12-12T10:03:15.315Z,4656.00
2022-12-12T10:04:15.340Z,4460.00
2022-12-12T10:05:15.319Z,5000.00
2022-12-12T10:06:36.535Z,4544.00
2022-12-12T10:07:15.324Z,5512.00
2022-12-12T10:08:15.368Z,6568.00
2022-12-12T10:09:15.319Z,6100.00
2022-12-12T10:10:15.672Z,6092.00
2022-12-12T10:11:15.319Z,5740.00
2022-12-12T10:12:15.323Z,6240.00
2022-12-12T10:13:15.331Z,6328.00
2022-12-12T10:14:15.326Z,7196.00
2022-12-12T10:15:15.579Z,7088.00
2022-12-12T10:16:15.369Z,7924.00
2022-12-12T10:17:15.327Z,7768.00
2022-12-12T10:18:15.322Z,7984.00
2022-12-12T10:19:15.329Z,8888.00
2022-12-12T10:20:15.737Z,10060.00
2022-12-12T10:21:15.323Z,10248.00
2022-12-12T10:22:15.332Z,9004.00
2022-12-12T10:23:15.329Z,8216.00
2022-12-12T10:24:15.333Z,8436.00
2022-12-12T10:25:15.332Z,7488.00
2022-12-12T10:26:15.328Z,7608.00
2022-12-12T10:27:15.333Z,6772.00
2022-12-12T10:28:15.328Z,6176.00
2022-12-12T10:29:15.330Z,5976.00
2022-12-12T10:30:15.701Z,6160.00
2022-12-12T10:31:15.457Z,5336.00
2022-12-12T10:32:15.331Z,4680.00
2022-12-12T10:33:15.331Z,5148.00
2022-12-12T10:34:15.340Z,5420.00
2022-12-12T10:35:21.348Z,5012.00
2022-12-12T10:36:15.356Z,5012.00
2022-12-12T10:37:15.344Z,4660.00
2022-12-12T10:38:15.335Z,4576.00
2022-12-12T10:39:15.335Z,5384.00
2022-12-12T10:40:15.341Z,5216.00
2022-12-12T10:41:15.344Z,4688.00
2022-12-12T10:42:15.337Z,4740.00
2022-12-12T10:43:15.347Z,5064.00
2022-12-12T10:44:15.346Z,6536.00
2022-12-12T10:45:15.683Z,6820.00
2022-12-12T10:46:15.512Z,6568.00
2022-12-12T10:47:15.342Z,4816.00
2022-12-12T10:48:15.343Z,4108.00
2022-12-12T10:49:15.344Z,3880.00
2022-12-12T10:50:15.353Z,3676.00
2022-12-12T10:51:15.352Z,3912.00
2022-12-12T10:52:15.375Z,4108.00
2022-12-12T10:53:15.353Z,4108.00
2022-12-12T10:54:15.354Z,3868.00
2022-12-12T10:55:15.643Z,3836.00
2022-12-12T10:56:15.357Z,4000.00
2022-12-12T10:57:20.149Z,4052.00
2022-12-12T10:58:15.359Z,4204.00
2022-12-12T10:59:15.350Z,5732.00
2022-12-12T11:00:15.355Z,6652.00
2022-12-12T11:01:15.416Z,7948.00
2022-12-12T11:02:15.534Z,7948.00
2022-12-12T11:03:15.408Z,6560.00
2022-12-12T11:04:15.365Z,6496.00
2022-12-12T11:05:15.656Z,8916.00
2022-12-12T11:06:15.368Z,10188.00
2022-12-12T11:07:15.366Z,9220.00
2022-12-12T11:08:15.422Z,8536.00
2022-12-12T11:09:15.360Z,8468.00
2022-12-12T11:10:15.369Z,8892.00
2022-12-12T11:11:15.368Z,9736.00
2022-12-12T11:12:15.373Z,9204.00
2022-12-12T11:13:15.378Z,8480.00
2022-12-12T11:14:15.372Z,8556.00
2022-12-12T11:15:15.674Z,12088.00
2022-12-12T11:16:15.480Z,8652.00
2022-12-12T11:17:15.367Z,10572.00
2022-12-12T11:18:15.377Z,7536.00
2022-12-12T11:19:15.376Z,7144.00
2022-12-12T11:20:15.379Z,8584.00
2022-12-12T11:21:15.381Z,8684.00
2022-12-12T11:22:15.388Z,8660.00
2022-12-12T11:23:18.352Z,8180.00
2022-12-12T11:24:15.409Z,7292.00
2022-12-12T11:25:15.562Z,6792.00
2022-12-12T11:26:15.386Z,6008.00
2022-12-12T11:27:15.387Z,6956.00
2022-12-12T11:28:15.388Z,7384.00
2022-12-12T11:29:15.392Z,7704.00
2022-12-12T11:30:15.384Z,7424.00
2022-12-12T11:31:15.474Z,7728.00
2022-12-12T11:32:15.388Z,6180.00
2022-12-12T11:33:15.392Z,6284.00
2022-12-12T11:34:15.397Z,7804.00
2022-12-12T11:35:15.782Z,8552.00
2022-12-12T11:36:15.399Z,8264.00
2022-12-12T11:37:15.403Z,9140.00
2022-12-12T11:38:15.396Z,10228.00
2022-12-12T11:39:15.405Z,10136.00
2022-12-12T11:40:15.509Z,10500.00
2022-12-12T11:41:15.407Z,11264.00
2022-12-12T11:42:15.410Z,10588.00
2022-12-12T11:43:15.401Z,11456.00
2022-12-12T11:44:20.027Z,11884.00
2022-12-12T11:45:15.698Z,12796.00
2022-12-12T11:46:15.516Z,13548.00
2022-12-12T11:47:15.417Z,12660.00
2022-12-12T11:48:15.411Z,11912.00
2022-12-12T11:49:15.419Z,11248.00
2022-12-12T11:50:15.515Z,10856.00
2022-12-12T11:51:15.422Z,9920.00
2022-12-12T11:52:15.418Z,9728.00
2022-12-12T11:53:15.417Z,9412.00
2022-12-12T11:54:15.431Z,8744.00
2022-12-12T11:55:15.817Z,8484.00
2022-12-12T11:56:15.453Z,7712.00
2022-12-12T11:57:15.429Z,6920.00
2022-12-12T11:58:15.434Z,6708.00
2022-12-12T11:59:15.445Z,6204.00
2022-12-12T12:00:15.447Z,6424.00
2022-12-12T12:01:15.432Z,6788.00
2022-12-12T12:02:15.434Z,6152.00
2022-12-12T12:03:15.508Z,6456.00
2022-12-12T12:04:15.517Z,6552.00
2022-12-12T12:05:15.838Z,7516.00
2022-12-12T12:06:15.441Z,8004.00
2022-12-12T12:07:15.444Z,7732.00
2022-12-12T12:08:15.479Z,8452.00
2022-12-12T12:09:15.455Z,8128.00
2022-12-12T12:10:18.438Z,8300.00
2022-12-12T12:11:15.456Z,8144.00
2022-12-12T12:12:15.519Z,7908.00
2022-12-12T12:13:15.453Z,7736.00
2022-12-12T12:14:15.454Z,6600.00
2022-12-12T12:15:15.809Z,6328.00
2022-12-12T12:16:15.509Z,6412.00
2022-12-12T12:17:15.465Z,6564.00
2022-12-12T12:18:15.462Z,7244.00
2022-12-12T12:19:15.462Z,8268.00
2022-12-12T12:20:15.464Z,8512.00
2022-12-12T12:21:15.471Z,9228.00
2022-12-12T12:22:15.475Z,9268.00
2022-12-12T12:23:15.465Z,8340.00
2022-12-12T12:24:15.476Z,7724.00
2022-12-12T12:25:15.956Z,7488.00
2022-12-12T12:26:15.481Z,6776.00
2022-12-12T12:27:15.472Z,5856.00
2022-12-12T12:28:15.495Z,5732.00
2022-12-12T12:29:15.484Z,5384.00
2022-12-12T12:30:15.486Z,5416.00
2022-12-12T12:31:15.619Z,5868.00
2022-12-12T12:32:15.500Z,5952.00
2022-12-12T12:33:15.487Z,5636.00
2022-12-12T12:34:15.490Z,5640.00
2022-12-12T12:35:15.780Z,5992.00
2022-12-12T12:36:20.894Z,6384.00
2022-12-12T12:37:15.489Z,5732.00
2022-12-12T12:38:15.488Z,5008.00
2022-12-12T12:39:15.491Z,4268.00
2022-12-12T12:40:15.498Z,3828.00
2022-12-12T12:41:15.493Z,3672.00
2022-12-12T12:42:15.500Z,3832.00
2022-12-12T12:43:15.495Z,4132.00
2022-12-12T12:44:15.519Z,4508.00
2022-12-12T12:45:15.870Z,5024.00
2022-12-12T12:46:15.557Z,5064.00
2022-12-12T12:47:15.509Z,5084.00